KDPG/DPG METAR and TAF weather

Enter ICAO airport designator
Station Type Date Time Source
KDPG METAR 2019/06/13 22:50 UTC NOAA

KDPG 132250Z 31017G25KT 30SM FEW070 FEW090 SCT120 BKN150 BKN200 30/01 A2990 RMK OCNL LTG ICCG DSNT W-NW CB DSNT W-NW TCU DSNT E-W SLP079 T02980011


Station Type Date Time Source
KDPG Decoded METAR 2019/06/13 22:50 UTC NOAA

Dugway Proving Grounds, UT, United States (KDPG) 40-10N 112-56W 1325M
Jun 13, 2019 - 06:50 PM EDT / 2019.06.13 2250 UTC
Wind: from the NW (310 degrees) at 20 MPH (17 KT) gusting to 29 MPH (25 KT):0
Visibility: 30 mile(s):0
Sky conditions: mostly cloudy
Weather: Cumulonimbus clouds, towering cumulus clouds, lightning observed
Temperature: 85.6 F (29.8 C)
Dew Point: 34.0 F (1.1 C)
Relative Humidity: 15%
Pressure (altimeter): 29.9 in. Hg (1012 hPa)
ob: KDPG 132250Z 31017G25KT 30SM FEW070 FEW090 SCT120 BKN150 BKN200 30/01 A2990 RMK OCNL LTG ICCG DSNT W-NW CB DSNT W-NW TCU DSNT E-W SLP079 T02980011
cycle: 23

Station Type Date Time Source
KDPG TAF UTC NOAA

Error!

Example: see airport list